ADDS METAR Data INFO
IDs: Format: Raw Decoded Include TAF

Data at: 0002 UTC 24 Feb 2018

KELY 232353Z AUTO 36011KT FEW055 M06/M16 A3005 RMK AO2 SLP238 60001 T10561156 11033 21072 53010 $
KELY 232253Z AUTO 34011KT CLR M05/M14 A3003 RMK AO2 SLP231 T10501139 $
KELY 232153Z AUTO 36015KT FEW041 BKN060 OVC075 M06/M11 A3002 RMK AO2 SLP222 T10561106 $
KELY 232053Z AUTO 01014KT FEW021 SCT037 OVC065 M05/M10 A3001 RMK AO2 SLP212 60001 T10501100 51007 $
KELY 231953Z AUTO 02016KT OVC060 M05/M09 A3001 RMK AO2 SLP202 T10501094 $
KELY 231853Z AUTO 01014KT OVC060 M07/M11 A3001 RMK AO2 SNE07 SLP207 P0001 T10671111 $
KELY 231753Z AUTO 01008KT -SN SCT032 SCT039 OVC049 M07/M11 A2999 RMK AO2 SNB41 SLP197 P0000 60001 I6000 T10721106 11072 21156 53015 $
KELY 231653Z AUTO 05003KT FEW028 SCT036 BKN047 M07/M11 A2997 RMK AO2 SNB36E52 SLP192 P0000 T10721111 $
KELY 231614Z AUTO 00000KT BKN032 OVC043 M09/M11 A2996 RMK AO2 T10891111 $
KELY 231553Z AUTO 00000KT OVC026 M10/M12 A2996 RMK AO2 SNE53 SLP197 P0000 T11001117 $
KELY 231535Z AUTO 29003KT -SN BKN026 OVC038 M11/M13 A2995 RMK AO2 P0000 T11061128 $
KELY 231453Z AUTO 16005KT -SN BKN055 OVC065 M11/M13 A2994 RMK AO2 SLP190 P0001 60001 I3000 T11111128 53012 $
KELY 231438Z AUTO 16006KT -SN OVC037 M11/M12 A2993 RMK AO2 P0001 T11061122 $
KELY 231353Z AUTO 19006KT -SN BKN029 BKN070 OVC090 M11/M13 A2992 RMK AO2 SNB39 SLP182 P0000 I1000 T11111128 $
KELY 231253Z AUTO 17007KT OVC046 M12/M13 A2991 RMK AO2 SLP176 T11221133 $
KELY 231153Z AUTO 14004KT OVC046 M16/M17 A2989 RMK AO2 SLP176 60000 70001 I6000 T11561172 11078 21167 53008 $
KELY 231053Z AUTO 19006KT CLR M17/M18 A2988 RMK AO2 SLP173 T11671183 $
KELY 230953Z AUTO 19005KT CLR M14/M16 A2988 RMK AO2 SLP163 T11391156 $
KELY 230853Z AUTO 00000KT CLR M12/M13 A2987 RMK AO2 SLP154 60000 T11171133 58005 $
KELY 230753Z AUTO 00000KT BKN050 M09/M12 A2988 RMK AO2 SLP149 T10891117 410221128 $
KELY 230653Z AUTO 00000KT OVC070 M09/M12 A2988 RMK AO2 SNE11 SLP148 P0000 T10891117 $
KELY 230604Z AUTO 32003KT -SN OVC033 M08/M11 A2989 RMK AO2 P0000 T10831106 $
KELY 230553Z AUTO 31003KT -SN OVC027 M08/M11 A2989 RMK AO2 SNB34 SLP150 P0000 60001 T10781106 11039 21094 51004 $
KELY 230453Z AUTO 00000KT OVC060 M09/M11 A2988 RMK AO2 SLP154 T10891106 $
KELY 230353Z AUTO 16003KT BKN075 BKN085 M09/M11 A2987 RMK AO2 SLP158 T10941111 $
KELY 230253Z AUTO 28005KT SCT044 BKN090 BKN110 M08/M09 A2987 RMK AO2 SLP167 60001 T10831094 51006 $
KELY 230153Z AUTO 32005KT FEW060 BKN070 M07/M10 A2987 RMK AO2 SLP163 T10671100 $
KELY 230053Z AUTO 00000KT FEW023 BKN075 OVC085 M06/M08 A2986 RMK AO2 SNE44 SLP150 P0001 T10561083 $
KELY 230044Z AUTO 19003KT SCT018 BKN048 OVC075 M06/M08 A2985 RMK AO2 SNE44 P0001 T10561083 $
KELY 230016Z AUTO 28009KT SN BKN012 OVC028 M06/M08 A2986 RMK AO2 P0000 T10611078 $
KELY 230006Z AUTO 28013KT SN BKN018 BKN028 OVC046 M06/M08 A2985 RMK AO2 P0000 T10611083 $
KELY 222353Z AUTO VRB04KT -SN FEW030 BKN036 OVC048 M04/M10 A2985 RMK AO2 SNB10E26B34 SLP147 P0000 60000 T10391100 11022 21039 56004 $
KELY 222342Z AUTO 14004KT -SN BKN032 BKN043 OVC050 M04/M10 A2985 RMK AO2 SNB10E26B34 P0000 T10391100 $
KELY 222328Z AUTO 15006G14KT BKN028 BKN037 OVC050 M04/M11 A2985 RMK AO2 SNB10E26 P0000 T10391106 $
KELY 222253Z AUTO 15005KT FEW032 BKN050 OVC065 M04/M11 A2985 RMK AO2 SLP150 T10391106 $
KELY 222153Z AUTO 17009KT BKN037 OVC044 M03/M12 A2985 RMK AO2 SLP151 T10281117 $
KELY 222053Z AUTO 20014G25KT FEW028 OVC040 M03/M12 A2986 RMK AO2 SLP155 T10331117 56009 $
KELY 221953Z AUTO 18008G25KT BKN048 OVC060 M03/M13 A2988 RMK AO2 WSHFT 1930 SLP154 T10281133 $
KELY 221950Z AUTO 19016G25KT 160V240 BKN048 OVC060 M03/M13 A2988 RMK AO2 WSHFT 1930 $
KELY 221928Z AUTO 17012KT BKN050 OVC060 M03/M14 A2988 RMK AO2 WSHFT 1908 T10281144 $
KELY 221853Z AUTO 20015G22KT BKN050 OVC060 M03/M14 A2990 RMK AO2 SLP156 T10281139 $
KELY 221753Z AUTO 17011KT OVC048 M03/M14 A2989 RMK AO2 SLP153 T10331139 11033 21122 50000 $
KELY 221653Z AUTO 19010KT FEW047 OVC055 M04/M15 A2990 RMK AO2 SLP162 T10441150 $
KELY 221553Z AUTO 19009KT BKN060 OVC080 M06/M14 A2990 RMK AO2 SLP167 T10611139 $
KELY 221453Z AUTO 00000KT OVC085 M11/M15 A2989 RMK AO2 SLP168 T11111150 56002 $
KELY 221353Z AUTO 12004KT SCT090 M12/M15 A2989 RMK AO2 SLP168 T11171150 $
KELY 221253Z AUTO 21009KT CLR M09/M14 A2989 RMK AO2 SLP155 T10941144 $